Impacts METAR Board
IDs:

KMSY - New Orleans/Armstron, LA, US

Updated at: 0500 UTC 20 Sep 2020
Potential Impact None Slight Moderate High
Time 19/17Z 19/18Z 19/19Z 19/20Z 19/21Z 19/22Z 19/23Z 20/00Z 20/01Z 20/02Z 20/03Z 20/04Z 20/05Z
Temp74 75 74 73 73 73 73 73 72 73 73 72 73
Dewpt69 69 69 69 69 69 69 69 68 68 69 69 69
Altim29.98 29.96 29.96 29.94 29.94 29.94 29.94 29.96 29.95 29.97 29.97 29.98 29.97
VIS9 10 8 6 9 6 9 7 10 10 8 3 10
CIG46 19 13 90 15 15 15 20 140 15 13 11 35
CoverOVCBKNOVCOVCOVCOVCOVCOVCOVCOVCOVCOVCOVC
FltCatVFRMVFRMVFRVFRMVFRMVFRMVFRMVFRVFRMVFRMVFRMVFRVFR
WX-RA---RA-RA BR-RARA BR-RA-RA-RA-RA-RA+RA BR--
WDir60707040607050706060607060
WSpd18 14 12 12 10 14 14 13 13 11 13 11 11
WGst25 20 18 19 -- 20 20 24 20 20 -- 19 --
R01/19
XWnd -13 -11 -10 -5 -7 -11 -8 -11 -9 -8 -9 -9 -8
XGst -18 -16 -15 -8 -- -16 -11 -20 -14 -14 -- -16 --
HWnd 13 8 7 11 7 8 11 7 9 8 9 6 8
HGst 18 11 10 17 -- 11 16 14 14 14 -- 11 --
R10/28
XWnd 13 8 7 11 7 8 11 7 9 8 9 6 8
XGst 18 11 10 17 -- 11 16 14 14 14 -- 11 --
HWnd 13 11 10 5 7 11 8 11 9 8 9 9 8
HGst 18 16 15 8 -- 16 11 20 14 14 -- 16 --
Raw hourly METARs
KMSY 191653Z 06018G25KT 9SM -RA SCT014 BKN046 OVC065 23/21 A2998 RMK AO2 SLP155 P0003 T02330206 $
KMSY 191801Z 07014G20KT 10SM SCT014 BKN019 BKN047 24/21 A2996 RMK AO2 T02390206 $
KMSY 191853Z 07012G18KT 8SM -RA BKN013 BKN055 OVC110 23/21 A2996 RMK AO2 RAB14 SLP148 T02330206 PNO $
KMSY 191953Z 04012G19KT 6SM -RA BR FEW015 BKN090 OVC110 23/21 A2994 RMK AO2 SLP141 P0004 T02280206 $
KMSY 192053Z 06010KT 9SM -RA FEW010 BKN015 OVC120 23/21 A2994 RMK AO2 SLP142 P0001 60005 T02280206 55009 $
KMSY 192153Z 07014G20KT 6SM RA BR BKN015 BKN060 OVC080 23/21 A2994 RMK AO2 SLP142 P0003 T02280206
KMSY 192253Z 05014G20KT 9SM -RA FEW010 BKN015 OVC095 23/21 A2994 RMK AO2 SLP141 P0008 T02280206
KMSY 192353Z 07013G24KT 7SM -RA SCT012 BKN020 OVC090 23/21 A2996 RMK AO2 SLP147 P0004 60020 T02280206 10239 20222 53005
KMSY 200053Z 06013G20KT 10SM -RA FEW016 SCT110 OVC140 22/20 A2995 RMK AO2 SLP143 P0002 T02220200
KMSY 200153Z 06011G20KT 10SM -RA BKN015 BKN025 OVC130 23/20 A2997 RMK AO2 SLP150 P0001 T02280200
KMSY 200253Z 06013KT 8SM -RA BKN013 BKN023 OVC100 23/21 A2997 RMK AO2 SLP152 P0001 60004 T02280206 53005
KMSY 200403Z 07011G19KT 3SM +RA BR BKN011 BKN021 OVC038 22/21 A2998 RMK AO2 P0004 T02220206 $
KMSY 200500Z 06011KT 10SM SCT015 BKN035 OVC055 23/21 A2997 RMK AO2 T02280206 $



Page loaded:  05:11 UTC  |   10:11 PM Pacific  |   11:11 PM Mountain  |   12:11 AM Central  |   01:11 AM Eastern

 

ADVISORIES

FORECASTS

FORECASTS

OBSERVATIONS

USER TOOLS

ABOUT US